Las Vegas, Nevada
Current Conditions -  °F | °C
As of 7:56 AM on Friday 24 Oct 2014 (Local Time) from KLAS Reporting Station
Clear Clear  
Wind Chill: 66°   Ceiling: Unl
Heat Index: 66°   Visibility: 10mi
Dew Point: 38°   Wind: 6mph
Humidity: 36%   Direction: 230°SW
Pressure: 30.07"   Gusts: NA
Location:  36.17°N, 115.13°W
Report Text: KLAS 241456Z 23005KT 10SM CLR 19/03 A3007 RMK AO2 SLP166 T01890033 53018
Loading
Personal Weather Stations






























Interactive Weather Map
Tropical Storm Tracking
New forecast layout! Learn more

10-Day Weather Forecast

Advertisements
Track Severe Weather on mobile